Time,TemperatureF,DewpointF,PressureIn,WindDirection,WindDirectionDegrees,WindSpeedMPH,WindSpeedGustMPH,Humidity,HourlyPrecipIn,Conditions,Clouds,dailyrainin,SoftwareType,DateUTC
2013-02-10 00:00:00,40.5,25.5,27.41,ENE,68,0.4,0.4,55,0.00,,,0.00,WUHU216HW,2013-02-10 07:00:00,
2013-02-10 00:05:00,40.5,25.5,27.41,ENE,68,0.4,0.4,55,0.00,,,0.00,WUHU216HW,2013-02-10 07:05:00,
2013-02-10 00:10:00,40.5,25.5,27.41,ENE,68,0.4,0.4,55,0.00,,,0.00,WUHU216HW,2013-02-10 07:10:00,
2013-02-10 00:30:00,40.0,25.4,27.41,North,0,0.0,0.0,56,0.00,,,0.00,WUHU216HW,2013-02-10 07:30:00,
2013-02-10 00:35:00,40.0,25.4,27.41,North,0,0.0,0.0,56,0.00,,,0.00,WUHU216HW,2013-02-10 07:35:00,
2013-02-10 00:40:00,40.0,25.4,27.41,North,0,0.0,0.0,56,0.00,,,0.00,WUHU216HW,2013-02-10 07:40:00,
2013-02-10 01:00:00,38.9,24.8,27.42,ESE,113,0.0,0.0,57,0.00,,,0.00,WUHU216HW,2013-02-10 08:00:00,
2013-02-10 01:05:00,38.9,25.3,27.42,ESE,113,0.0,0.0,58,0.00,,,0.00,WUHU216HW,2013-02-10 08:05:00,
2013-02-10 01:10:00,38.9,25.3,27.42,ESE,113,0.0,0.0,58,0.00,,,0.00,WUHU216HW,2013-02-10 08:10:00,
2013-02-10 01:30:00,37.6,25.0,27.42,ENE,68,0.0,0.0,60,0.00,,,0.00,WUHU216HW,2013-02-10 08:30:00,
2013-02-10 01:35:00,37.6,25.0,27.42,ENE,68,0.0,0.0,60,0.00,,,0.00,WUHU216HW,2013-02-10 08:35:00,
2013-02-10 01:40:00,37.6,25.0,27.42,ENE,68,0.0,0.0,60,0.00,,,0.00,WUHU216HW,2013-02-10 08:40:00,
2013-02-10 02:00:00,37.1,24.9,27.41,North,0,0.0,0.0,61,0.00,,,0.00,WUHU216HW,2013-02-10 09:00:00,
2013-02-10 02:05:00,37.1,24.9,27.41,North,0,0.0,0.0,61,0.00,,,0.00,WUHU216HW,2013-02-10 09:05:00,
2013-02-10 02:10:00,37.1,24.9,27.41,North,0,0.0,0.0,61,0.00,,,0.00,WUHU216HW,2013-02-10 09:10:00,
2013-02-10 02:30:00,36.0,24.3,27.40,ENE,68,0.0,0.0,62,0.00,,,0.00,WUHU216HW,2013-02-10 09:30:00,
2013-02-10 02:35:00,36.0,24.3,27.40,ENE,68,0.0,0.0,62,0.00,,,0.00,WUHU216HW,2013-02-10 09:35:00,
2013-02-10 02:40:00,36.0,24.3,27.40,ENE,68,0.0,0.0,62,0.00,,,0.00,WUHU216HW,2013-02-10 09:40:00,
2013-02-10 03:00:00,35.3,23.9,27.40,ESE,113,0.0,0.0,63,0.00,,,0.00,WUHU216HW,2013-02-10 10:00:00,
2013-02-10 03:05:00,35.3,23.9,27.40,ESE,113,0.0,0.0,63,0.00,,,0.00,WUHU216HW,2013-02-10 10:05:00,
2013-02-10 03:10:00,35.3,23.9,27.40,ESE,113,0.0,0.0,63,0.00,,,0.00,WUHU216HW,2013-02-10 10:10:00,
2013-02-10 03:30:00,34.9,24.3,27.40,NE,45,0.0,0.0,65,0.00,,,0.00,WUHU216HW,2013-02-10 10:30:00,
2013-02-10 03:35:00,34.9,24.3,27.40,NNE,23,0.0,0.0,65,0.00,,,0.00,WUHU216HW,2013-02-10 10:35:00,
2013-02-10 03:40:00,34.9,24.3,27.40,NNE,23,0.0,0.0,65,0.00,,,0.00,WUHU216HW,2013-02-10 10:40:00,
2013-02-10 04:00:00,34.4,23.8,27.40,ENE,68,0.0,0.0,65,0.00,,,0.00,WUHU216HW,2013-02-10 11:00:00,
2013-02-10 04:05:00,34.4,23.8,27.40,ENE,68,0.0,0.0,65,0.00,,,0.00,WUHU216HW,2013-02-10 11:05:00,
2013-02-10 04:10:00,34.4,23.8,27.40,ENE,68,0.0,0.0,65,0.00,,,0.00,WUHU216HW,2013-02-10 11:10:00,
2013-02-10 04:30:00,34.2,23.9,27.40,North,0,0.0,0.0,66,0.00,,,0.00,WUHU216HW,2013-02-10 11:30:00,
2013-02-10 04:35:00,34.0,23.8,27.40,North,0,0.0,0.0,66,0.00,,,0.00,WUHU216HW,2013-02-10 11:35:00,
2013-02-10 04:40:00,34.0,23.8,27.40,North,0,0.0,0.0,66,0.00,,,0.00,WUHU216HW,2013-02-10 11:40:00,
2013-02-10 05:00:00,33.5,23.6,27.40,ENE,68,0.0,0.0,67,0.00,,,0.00,WUHU216HW,2013-02-10 12:00:00,
2013-02-10 05:05:00,33.5,23.6,27.40,ENE,68,0.0,0.0,67,0.00,,,0.00,WUHU216HW,2013-02-10 12:05:00,
2013-02-10 05:10:00,33.5,23.6,27.40,ENE,68,0.0,0.0,67,0.00,,,0.00,WUHU216HW,2013-02-10 12:10:00,
2013-02-10 05:30:00,33.3,23.5,27.39,NE,45,0.0,0.0,67,0.00,,,0.00,WUHU216HW,2013-02-10 12:30:00,
2013-02-10 05:35:00,33.3,23.5,27.39,NE,45,0.0,0.0,67,0.00,,,0.00,WUHU216HW,2013-02-10 12:35:00,
2013-02-10 05:40:00,33.3,23.5,27.39,NE,45,0.0,0.0,67,0.00,,,0.00,WUHU216HW,2013-02-10 12:40:00,
2013-02-10 06:00:00,32.8,23.7,27.39,ENE,68,0.0,0.0,69,0.00,,,0.00,WUHU216HW,2013-02-10 13:00:00,
2013-02-10 06:05:00,32.6,23.5,27.40,ENE,68,0.0,0.0,69,0.00,,,0.00,WUHU216HW,2013-02-10 13:05:00,
2013-02-10 06:10:00,32.6,23.5,27.40,ENE,68,0.0,0.0,69,0.00,,,0.00,WUHU216HW,2013-02-10 13:10:00,
2013-02-10 06:30:00,33.1,24.0,27.40,North,0,0.0,0.0,69,0.00,,,0.00,WUHU216HW,2013-02-10 13:30:00,
2013-02-10 06:35:00,33.1,24.0,27.40,North,0,0.0,0.0,69,0.00,,,0.00,WUHU216HW,2013-02-10 13:35:00,
2013-02-10 06:40:00,33.1,24.0,27.40,North,0,0.0,0.0,69,0.00,,,0.00,WUHU216HW,2013-02-10 13:40:00,
2013-02-10 07:00:00,32.4,23.4,27.40,ENE,68,0.0,0.0,69,0.00,,,0.00,WUHU216HW,2013-02-10 14:00:00,
2013-02-10 07:05:00,32.4,23.4,27.40,ENE,68,0.0,0.0,69,0.00,,,0.00,WUHU216HW,2013-02-10 14:05:00,
2013-02-10 07:10:00,32.4,23.4,27.40,ENE,68,0.0,0.0,69,0.00,,,0.00,WUHU216HW,2013-02-10 14:10:00,
2013-02-10 07:30:00,32.2,23.2,27.40,NNW,338,0.0,0.0,69,0.00,,,0.00,WUHU216HW,2013-02-10 14:30:00,
2013-02-10 07:35:00,32.2,23.2,27.40,North,0,0.0,0.0,69,0.00,,,0.00,WUHU216HW,2013-02-10 14:35:00,
2013-02-10 07:40:00,32.2,23.2,27.40,North,0,0.0,0.0,69,0.00,,,0.00,WUHU216HW,2013-02-10 14:40:00,
2013-02-10 08:00:00,32.9,24.2,27.40,North,0,0.0,0.0,70,0.00,,,0.00,WUHU216HW,2013-02-10 15:00:00,
2013-02-10 08:05:00,32.9,24.2,27.41,NNE,23,0.0,0.0,70,0.00,,,0.00,WUHU216HW,2013-02-10 15:05:00,
2013-02-10 08:10:00,32.9,24.2,27.41,NNE,23,0.0,0.0,70,0.00,,,0.00,WUHU216HW,2013-02-10 15:10:00,
2013-02-10 08:30:00,35.6,26.8,27.41,North,0,0.0,0.0,70,0.00,,,0.00,WUHU216HW,2013-02-10 15:30:00,
2013-02-10 08:35:00,35.6,26.8,27.41,North,0,0.0,0.0,70,0.00,,,0.00,WUHU216HW,2013-02-10 15:35:00,
2013-02-10 08:40:00,35.6,26.8,27.41,North,0,0.0,0.0,70,0.00,,,0.00,WUHU216HW,2013-02-10 15:40:00,
2013-02-10 09:00:00,38.5,27.7,27.41,ENE,68,0.4,0.4,65,0.00,,,0.00,WUHU216HW,2013-02-10 16:00:00,
2013-02-10 09:05:00,38.5,27.7,27.41,ENE,68,0.4,0.4,65,0.00,,,0.00,WUHU216HW,2013-02-10 16:05:00,
2013-02-10 09:10:00,38.5,27.7,27.41,ENE,68,0.4,0.4,65,0.00,,,0.00,WUHU216HW,2013-02-10 16:10:00,
2013-02-10 09:30:00,41.4,29.7,27.41,SSE,158,0.2,0.2,63,0.00,,,0.00,WUHU216HW,2013-02-10 16:30:00,
2013-02-10 09:59:00,43.9,29.6,27.41,West,270,1.6,1.6,57,0.00,,,0.00,WUHU216HW,2013-02-10 16:59:00,
2013-02-10 10:00:00,43.9,29.6,27.41,WSW,248,2.0,2.0,57,0.00,,,0.00,WUHU216HW,2013-02-10 17:00:00,
2013-02-10 10:30:00,46.3,29.1,27.41,SSW,203,1.1,1.1,51,0.00,,,0.00,WUHU216HW,2013-02-10 17:30:00,
2013-02-10 10:59:00,48.2,28.8,27.40,NNW,338,0.4,0.4,47,0.00,,,0.00,WUHU216HW,2013-02-10 17:59:00,
2013-02-10 11:00:00,48.2,28.8,27.40,NNW,338,0.2,0.4,47,0.00,,,0.00,WUHU216HW,2013-02-10 18:00:00,
2013-02-10 11:30:00,49.9,25.8,27.40,WNW,293,1.8,1.8,39,0.00,,,0.00,WUHU216HW,2013-02-10 18:30:00,
2013-02-10 12:00:00,51.5,27.3,27.39,SSW,203,1.1,1.1,39,0.00,,,0.00,WUHU216HW,2013-02-10 19:00:00,
2013-02-10 12:30:00,52.2,23.8,27.37,NE,45,2.7,2.7,33,0.00,,,0.00,WUHU216HW,2013-02-10 19:30:00,
2013-02-10 13:00:00,53.5,24.9,27.36,SW,225,3.1,3.1,33,0.00,,,0.00,WUHU216HW,2013-02-10 20:00:00,
2013-02-10 13:30:00,54.5,25.8,27.34,SE,135,3.1,3.1,33,0.00,,,0.00,WUHU216HW,2013-02-10 20:30:00,
2013-02-10 13:35:00,54.5,25.8,27.34,SE,135,2.2,3.1,33,0.00,,,0.00,WUHU216HW,2013-02-10 20:35:00,
2013-02-10 13:40:00,54.5,25.8,27.34,SE,135,2.2,2.2,33,0.00,,,0.00,WUHU216HW,2013-02-10 20:40:00,
2013-02-10 14:00:00,54.9,24.0,27.33,WSW,248,1.8,1.8,30,0.00,,,0.00,WUHU216HW,2013-02-10 21:00:00,
2013-02-10 14:05:00,54.9,24.0,27.33,South,180,2.5,2.5,30,0.00,,,0.00,WUHU216HW,2013-02-10 21:05:00,
2013-02-10 14:10:00,54.9,24.0,27.33,South,180,2.5,2.5,30,0.00,,,0.00,WUHU216HW,2013-02-10 21:10:00,
2013-02-10 14:30:00,56.0,24.0,27.33,West,270,3.4,3.4,29,0.00,,,0.00,WUHU216HW,2013-02-10 21:30:00,
2013-02-10 14:35:00,56.0,24.0,27.33,West,270,3.4,3.4,29,0.00,,,0.00,WUHU216HW,2013-02-10 21:35:00,
2013-02-10 14:40:00,56.0,24.0,27.33,West,270,3.4,3.4,29,0.00,,,0.00,WUHU216HW,2013-02-10 21:40:00,
2013-02-10 15:00:00,56.5,24.5,27.33,SW,225,2.9,2.9,29,0.00,,,0.00,WUHU216HW,2013-02-10 22:00:00,
2013-02-10 15:05:00,56.5,24.5,27.33,WSW,248,3.4,3.4,29,0.00,,,0.00,WUHU216HW,2013-02-10 22:05:00,
2013-02-10 15:10:00,56.5,24.5,27.33,WSW,248,3.4,3.4,29,0.00,,,0.00,WUHU216HW,2013-02-10 22:10:00,
2013-02-10 15:30:00,56.2,20.4,27.32,SSW,203,2.5,2.5,25,0.00,,,0.00,WUHU216HW,2013-02-10 22:30:00,
2013-02-10 15:35:00,56.2,20.4,27.32,SW,225,1.1,2.5,25,0.00,,,0.00,WUHU216HW,2013-02-10 22:35:00,
2013-02-10 16:00:00,56.5,23.6,27.32,WNW,293,1.8,1.8,28,0.00,,,0.00,WUHU216HW,2013-02-10 23:00:00,
2013-02-10 16:05:00,56.5,23.6,27.32,WNW,293,0.9,1.8,28,0.00,,,0.00,WUHU216HW,2013-02-10 23:05:00,
2013-02-10 16:10:00,56.5,23.6,27.32,WNW,293,0.9,1.8,28,0.00,,,0.00,WUHU216HW,2013-02-10 23:10:00,
2013-02-10 16:30:00,56.3,23.4,27.31,NW,315,1.1,1.1,28,0.00,,,0.00,WUHU216HW,2013-02-10 23:30:00,
2013-02-10 16:35:00,56.3,23.4,27.31,West,270,3.4,3.4,28,0.00,,,0.00,WUHU216HW,2013-02-10 23:35:00,
2013-02-10 16:40:00,56.3,23.4,27.31,West,270,3.4,3.4,28,0.00,,,0.00,WUHU216HW,2013-02-10 23:40:00,
2013-02-10 17:00:00,56.3,23.4,27.31,SW,225,1.8,1.8,28,0.00,,,0.00,WUHU216HW,2013-02-11 00:00:00,
2013-02-10 17:05:00,56.3,23.4,27.31,WSW,248,1.6,1.8,28,0.00,,,0.00,WUHU216HW,2013-02-11 00:05:00,
2013-02-10 17:10:00,56.3,23.4,27.31,WSW,248,1.6,1.8,28,0.00,,,0.00,WUHU216HW,2013-02-11 00:10:00,
2013-02-10 17:30:00,55.4,21.7,27.31,West,270,1.1,1.1,27,0.00,,,0.00,WUHU216HW,2013-02-11 00:30:00,
2013-02-10 17:35:00,55.4,21.7,27.31,West,270,1.1,1.1,27,0.00,,,0.00,WUHU216HW,2013-02-11 00:35:00,
2013-02-10 17:40:00,55.4,21.7,27.31,West,270,1.1,1.1,27,0.00,,,0.00,WUHU216HW,2013-02-11 00:40:00,
2013-02-10 18:00:00,54.5,22.9,27.32,WSW,248,2.5,2.5,29,0.00,,,0.00,WUHU216HW,2013-02-11 01:00:00,
2013-02-10 18:05:00,54.4,22.7,27.32,West,270,1.8,2.5,29,0.00,,,0.00,WUHU216HW,2013-02-11 01:05:00,
2013-02-10 18:10:00,54.4,22.7,27.32,West,270,1.8,1.8,29,0.00,,,0.00,WUHU216HW,2013-02-11 01:10:00,
2013-02-10 18:30:00,53.1,24.0,27.32,West,270,0.0,0.0,32,0.00,,,0.00,WUHU216HW,2013-02-11 01:30:00,
2013-02-10 18:35:00,53.1,24.0,27.32,WSW,248,0.0,0.0,32,0.00,,,0.00,WUHU216HW,2013-02-11 01:35:00,
2013-02-10 18:40:00,53.1,24.0,27.32,WSW,248,0.0,0.0,32,0.00,,,0.00,WUHU216HW,2013-02-11 01:40:00,
2013-02-10 19:00:00,53.1,24.6,27.32,West,270,0.2,0.2,33,0.00,,,0.00,WUHU216HW,2013-02-11 02:00:00,
2013-02-10 19:05:00,53.1,24.6,27.33,West,270,0.0,0.2,33,0.00,,,0.00,WUHU216HW,2013-02-11 02:05:00,
2013-02-10 19:10:00,53.1,24.6,27.33,West,270,0.0,0.2,33,0.00,,,0.00,WUHU216HW,2013-02-11 02:10:00,
2013-02-10 19:30:00,51.7,24.0,27.34,NW,315,0.0,0.0,34,0.00,,,0.00,WUHU216HW,2013-02-11 02:30:00,
2013-02-10 19:35:00,51.7,24.0,27.34,NW,315,0.0,0.0,34,0.00,,,0.00,WUHU216HW,2013-02-11 02:35:00,
2013-02-10 19:40:00,51.7,24.0,27.34,NW,315,0.0,0.0,34,0.00,,,0.00,WUHU216HW,2013-02-11 02:40:00,
2013-02-10 20:00:00,50.2,24.0,27.34,NNW,338,0.0,0.0,36,0.00,,,0.00,WUHU216HW,2013-02-11 03:00:00,
2013-02-10 20:05:00,50.2,24.0,27.34,NNW,338,0.0,0.0,36,0.00,,,0.00,WUHU216HW,2013-02-11 03:05:00,
2013-02-10 20:10:00,50.2,24.0,27.34,NNW,338,0.0,0.0,36,0.00,,,0.00,WUHU216HW,2013-02-11 03:10:00,
2013-02-10 20:30:00,47.2,23.4,27.35,ENE,68,0.0,0.0,39,0.00,,,0.00,WUHU216HW,2013-02-11 03:30:00,
2013-02-10 20:35:00,47.2,23.4,27.35,ENE,68,0.0,0.0,39,0.00,,,0.00,WUHU216HW,2013-02-11 03:35:00,
2013-02-10 20:40:00,47.2,23.4,27.35,ENE,68,0.0,0.0,39,0.00,,,0.00,WUHU216HW,2013-02-11 03:40:00,
2013-02-10 21:00:00,45.7,23.9,27.36,ENE,68,0.0,0.0,42,0.00,,,0.00,WUHU216HW,2013-02-11 04:00:00,
2013-02-10 21:05:00,45.5,23.7,27.36,ENE,68,0.0,0.0,42,0.00,,,0.00,WUHU216HW,2013-02-11 04:05:00,
2013-02-10 21:10:00,45.5,23.7,27.36,ENE,68,0.0,0.0,42,0.00,,,0.00,WUHU216HW,2013-02-11 04:10:00,
2013-02-10 21:30:00,43.7,23.1,27.36,East,90,0.0,0.0,44,0.00,,,0.00,WUHU216HW,2013-02-11 04:30:00,
2013-02-10 21:35:00,43.7,23.1,27.36,East,90,0.0,0.0,44,0.00,,,0.00,WUHU216HW,2013-02-11 04:35:00,
2013-02-10 21:40:00,43.7,23.1,27.36,East,90,0.0,0.0,44,0.00,,,0.00,WUHU216HW,2013-02-11 04:40:00,
2013-02-10 22:00:00,43.4,23.3,27.37,ENE,68,0.0,0.0,45,0.00,,,0.00,WUHU216HW,2013-02-11 05:00:00,
2013-02-10 22:05:00,43.4,23.3,27.37,ENE,68,0.0,0.0,45,0.00,,,0.00,WUHU216HW,2013-02-11 05:05:00,
2013-02-10 22:10:00,43.4,23.3,27.37,ENE,68,0.0,0.0,45,0.00,,,0.00,WUHU216HW,2013-02-11 05:10:00,
2013-02-10 22:30:00,42.3,23.4,27.37,North,0,0.2,0.2,47,0.00,,,0.00,WUHU216HW,2013-02-11 05:30:00,
2013-02-10 22:35:00,42.3,22.9,27.37,NNE,23,0.4,0.4,46,0.00,,,0.00,WUHU216HW,2013-02-11 05:35:00,
2013-02-10 23:00:00,41.4,23.0,27.36,NE,45,0.0,0.0,48,0.00,,,0.00,WUHU216HW,2013-02-11 06:00:00,
2013-02-10 23:05:00,41.4,23.0,27.36,NE,45,0.0,0.0,48,0.00,,,0.00,WUHU216HW,2013-02-11 06:05:00,
2013-02-10 23:10:00,41.4,23.0,27.36,NE,45,0.0,0.0,48,0.00,,,0.00,WUHU216HW,2013-02-11 06:10:00,
2013-02-10 23:30:00,40.7,23.0,27.37,North,0,0.0,0.0,49,0.00,,,0.00,WUHU216HW,2013-02-11 06:30:00,
2013-02-10 23:35:00,40.7,23.0,27.37,North,0,0.0,0.0,49,0.00,,,0.00,WUHU216HW,2013-02-11 06:35:00,
2013-02-10 23:40:00,40.7,23.0,27.37,North,0,0.0,0.0,49,0.00,,,0.00,WUHU216HW,2013-02-11 06:40:00,